Terminal Aerodrome Forecast
Issued by NWS Bismarck, ND

Home | Current Version | Previous Version | Text Only | Print | Product List | Glossary On
Versions: 1 2 3 4 5 6 7 8 9 10 11 12 13
000
FTUS43 KBIS 231700
TAFISN
TAF
KISN 231734Z 2318/2418 21010KT P6SM BKN200
     FM240300 23005KT P6SM SCT110
     FM241500 27014KT P6SM SCT100=

USA.gov is the U.S. government's official web portal to all federal, state and local government web resources and services.